Time;durP1;ratioP1;P1;durP2;ratioP2;P2;SDS_P1;SDS_P2;PMS_P1;PMS_P2;Temp;Humidity;BMP_temperature;BMP_pressure;BME280_temperature;BME280_humidity;BME280_pressure;Samples;Min_cycle;Max_cycle;Signal;HPM_P1;HPM_P2
2021/06/12 00:01:35;;;;;;;14.57;7.93;;;;;;;;;;5055206;28;20379;-70
2021/06/12 00:04:04;;;;;;;10.80;7.68;;;;;;;;;;5054859;28;20021;-69
2021/06/12 00:06:32;;;;;;;11.43;7.77;;;;;;;;;;5054946;28;20017;-69
2021/06/12 00:09:00;;;;;;;8.95;7.63;;;;;;;;;;5055020;28;20465;-69
2021/06/12 00:19:13;;;;;;;8.40;5.13;;;;;;;;;;4666543;26;20060;-70
2021/06/12 00:21:41;;;;;;;10.65;6.90;;;;;;;;;;5034535;28;20037;-69
2021/06/12 00:24:10;;;;;;;18.02;8.38;;;;;;;;;;5034631;28;20022;-70
2021/06/12 00:26:38;;;;;;;11.85;7.32;;;;;;;;;;5034857;28;20446;-69
2021/06/12 00:29:05;;;;;;;9.40;6.75;;;;;;;;;;5034772;28;20022;-69
2021/06/12 00:31:34;;;;;;;8.35;6.57;;;;;;;;;;5034510;28;20041;-69
2021/06/12 00:34:02;;;;;;;11.32;7.47;;;;;;;;;;5017057;28;20026;-69
2021/06/12 00:36:29;;;;;;;11.00;7.25;;;;;;;;;;5034621;28;20029;-70
2021/06/12 00:38:57;;;;;;;9.68;7.00;;;;;;;;;;5034596;28;20109;-69
2021/06/12 00:41:25;;;;;;;11.35;6.97;;;;;;;;;;5034528;28;20019;-70
2021/06/12 00:43:52;;;;;;;7.70;6.25;;;;;;;;;;5033741;28;20085;-70
2021/06/12 00:46:20;;;;;;;8.35;6.05;;;;;;;;;;5034158;28;20379;-70
2021/06/12 00:48:48;;;;;;;7.85;6.03;;;;;;;;;;5034503;28;20018;-70
2021/06/12 00:51:17;;;;;;;6.20;5.35;;;;;;;;;;5034304;28;20021;-70
2021/06/12 00:53:45;;;;;;;11.10;6.07;;;;;;;;;;5016559;28;20017;-70
2021/06/12 00:56:14;;;;;;;6.80;5.70;;;;;;;;;;5034271;28;20313;-70
2021/06/12 00:58:43;;;;;;;7.15;5.70;;;;;;;;;;5033891;28;20545;-70
2021/06/12 01:01:14;;;;;;;8.57;5.55;;;;;;;;;;5034163;28;20171;-69
2021/06/12 01:03:45;;;;;;;9.45;6.05;;;;;;;;;;5034090;28;20025;-70
2021/06/12 01:06:13;;;;;;;7.47;5.90;;;;;;;;;;5033936;28;20424;-69
2021/06/12 01:08:44;;;;;;;9.73;6.05;;;;;;;;;;5034055;28;20018;-70
2021/06/12 01:11:12;;;;;;;8.00;6.03;;;;;;;;;;5033854;28;20013;-69
2021/06/12 01:13:46;;;;;;;9.57;6.55;;;;;;;;;;5014623;28;20018;-70
2021/06/12 01:16:14;;;;;;;6.15;5.55;;;;;;;;;;5014077;28;20029;-70
2021/06/12 01:18:45;;;;;;;11.88;6.55;;;;;;;;;;5013764;28;20132;-70
2021/06/12 01:21:25;;;;;;;7.43;6.20;;;;;;;;;;5014036;28;20017;-69
2021/06/12 01:23:58;;;;;;;7.85;6.10;;;;;;;;;;5013726;28;20014;-69
2021/06/12 01:26:32;;;;;;;8.52;5.68;;;;;;;;;;5014232;28;20114;-70
2021/06/12 01:29:04;;;;;;;9.25;6.97;;;;;;;;;;5039667;28;20037;-70
2021/06/12 01:31:33;;;;;;;10.82;6.32;;;;;;;;;;5039353;28;20045;-70
2021/06/12 01:34:02;;;;;;;8.32;6.43;;;;;;;;;;5039148;28;20014;-70
2021/06/12 01:36:31;;;;;;;8.13;6.78;;;;;;;;;;5025256;28;20375;-70
2021/06/12 01:39:00;;;;;;;11.13;6.38;;;;;;;;;;5014094;28;20030;-69
2021/06/12 01:41:30;;;;;;;11.55;5.68;;;;;;;;;;5013680;28;20049;-70
2021/06/12 01:43:59;;;;;;;10.98;6.97;;;;;;;;;;5012808;28;20030;-70
2021/06/12 01:46:27;;;;;;;9.47;6.67;;;;;;;;;;5013599;28;20426;-70
2021/06/12 01:48:58;;;;;;;10.32;6.82;;;;;;;;;;5013476;28;20295;-70
2021/06/12 01:51:26;;;;;;;7.25;5.78;;;;;;;;;;5013646;28;20052;-70
2021/06/12 01:53:55;;;;;;;7.93;5.80;;;;;;;;;;5013364;28;20045;-70
2021/06/12 01:56:24;;;;;;;11.48;7.70;;;;;;;;;;5013281;28;20010;-70
2021/06/12 01:58:53;;;;;;;10.57;6.78;;;;;;;;;;5013366;28;20034;-69
2021/06/12 02:01:23;;;;;;;11.13;6.90;;;;;;;;;;5013242;28;20061;-70
2021/06/12 02:03:52;;;;;;;14.05;7.10;;;;;;;;;;4995520;28;20018;-69
2021/06/12 02:06:21;;;;;;;11.18;6.80;;;;;;;;;;5013291;28;20087;-69
2021/06/12 02:08:49;;;;;;;9.73;6.75;;;;;;;;;;5013106;28;20029;-69
2021/06/12 02:11:18;;;;;;;9.57;6.97;;;;;;;;;;5013199;28;20017;-69
2021/06/12 02:13:47;;;;;;;10.48;6.50;;;;;;;;;;5012255;28;20049;-69
2021/06/12 02:16:15;;;;;;;20.07;7.80;;;;;;;;;;5013110;28;20471;-69
2021/06/12 02:18:46;;;;;;;10.82;7.07;;;;;;;;;;5012942;28;20346;-69
2021/06/12 02:21:17;;;;;;;7.78;6.80;;;;;;;;;;5012986;28;20417;-69
2021/06/12 02:23:46;;;;;;;12.18;7.35;;;;;;;;;;5012897;28;20044;-69
2021/06/12 02:26:14;;;;;;;15.15;7.93;;;;;;;;;;5013001;28;20379;-70
2021/06/12 02:28:43;;;;;;;10.43;6.93;;;;;;;;;;5012823;28;20426;-69
2021/06/12 02:31:16;;;;;;;12.70;7.15;;;;;;;;;;5013007;28;20021;-69
2021/06/12 02:33:46;;;;;;;10.65;7.78;;;;;;;;;;5012901;28;20093;-70
2021/06/12 02:36:16;;;;;;;12.73;7.68;;;;;;;;;;5012843;28;20029;-69
2021/06/12 02:38:44;;;;;;;8.95;6.03;;;;;;;;;;5012771;28;20482;-69
2021/06/12 02:41:12;;;;;;;7.97;6.38;;;;;;;;;;5012756;28;20018;-69
2021/06/12 02:43:40;;;;;;;14.90;7.93;;;;;;;;;;5013654;28;20022;-69
2021/06/12 02:46:11;;;;;;;10.80;7.45;;;;;;;;;;5016569;28;20018;-69
2021/06/12 02:48:39;;;;;;;11.35;7.40;;;;;;;;;;5016859;28;20471;-69
2021/06/12 02:51:08;;;;;;;13.90;8.07;;;;;;;;;;5016829;28;20021;-70
2021/06/12 02:53:37;;;;;;;14.95;7.95;;;;;;;;;;5016672;28;20034;-69
2021/06/12 02:56:06;;;;;;;11.30;8.15;;;;;;;;;;5016462;28;20047;-70
2021/06/12 02:58:36;;;;;;;11.47;8.00;;;;;;;;;;5016524;28;20022;-70
2021/06/12 03:01:04;;;;;;;12.65;7.78;;;;;;;;;;5016494;28;20371;-69
2021/06/12 03:03:33;;;;;;;10.07;7.05;;;;;;;;;;5016383;28;20538;-69
2021/06/12 03:06:01;;;;;;;11.35;6.75;;;;;;;;;;5016221;28;20018;-69
2021/06/12 03:08:32;;;;;;;10.93;7.70;;;;;;;;;;4998544;28;20026;-69
2021/06/12 03:11:01;;;;;;;6.90;5.95;;;;;;;;;;5016169;28;20049;-69
2021/06/12 03:13:29;;;;;;;11.15;6.38;;;;;;;;;;5015552;28;20014;-69
2021/06/12 03:15:57;;;;;;;10.30;7.22;;;;;;;;;;5016135;28;20032;-69
2021/06/12 03:18:25;;;;;;;10.10;7.93;;;;;;;;;;5016000;28;20054;-69
2021/06/12 03:20:56;;;;;;;11.75;6.68;;;;;;;;;;5016136;28;20072;-69
2021/06/12 03:23:24;;;;;;;13.05;8.15;;;;;;;;;;5016006;28;20018;-69
2021/06/12 03:25:52;;;;;;;12.90;8.63;;;;;;;;;;5016188;28;20049;-69
2021/06/12 03:28:20;;;;;;;16.85;9.32;;;;;;;;;;5016006;28;20374;-69
2021/06/12 03:30:48;;;;;;;14.07;9.48;;;;;;;;;;5015956;28;20029;-69
2021/06/12 03:33:17;;;;;;;16.33;8.70;;;;;;;;;;5015918;28;20025;-69
2021/06/12 03:35:46;;;;;;;11.93;8.47;;;;;;;;;;5015537;28;20022;-69
2021/06/12 03:38:15;;;;;;;11.63;9.50;;;;;;;;;;5015736;28;20053;-69
2021/06/12 03:40:43;;;;;;;12.98;8.20;;;;;;;;;;5016122;28;20026;-69
2021/06/12 03:43:11;;;;;;;11.13;7.88;;;;;;;;;;5015137;28;20057;-69
2021/06/12 03:45:40;;;;;;;13.18;8.02;;;;;;;;;;5015707;28;20022;-69
2021/06/12 03:48:08;;;;;;;;;;;;;;;;;;5015665;28;20042;-70
2021/06/12 03:50:36;;;;;;;13.55;7.45;;;;;;;;;;5015566;28;19905;-70
2021/06/12 03:53:04;;;;;;;13.82;8.00;;;;;;;;;;5015545;28;20426;-70
2021/06/12 03:55:32;;;;;;;9.40;6.93;;;;;;;;;;4997172;28;20493;-70
2021/06/12 03:58:00;;;;;;;7.78;6.65;;;;;;;;;;5015174;28;20022;-69
2021/06/12 04:00:29;;;;;;;11.93;7.47;;;;;;;;;;5015376;28;20116;-70
2021/06/12 04:02:56;;;;;;;10.30;5.75;;;;;;;;;;5015350;28;20024;-69
2021/06/12 04:05:24;;;;;;;9.02;5.88;;;;;;;;;;5015493;28;20513;-70
2021/06/12 04:07:52;;;;;;;9.05;6.80;;;;;;;;;;5015039;28;20385;-69
2021/06/12 04:10:20;;;;;;;10.27;6.55;;;;;;;;;;5015213;28;20521;-69
2021/06/12 04:12:47;;;;;;;7.70;5.68;;;;;;;;;;5014496;28;20112;-70
2021/06/12 04:15:15;;;;;;;13.20;7.00;;;;;;;;;;5014973;28;20501;-70
2021/06/12 04:17:44;;;;;;;11.05;7.57;;;;;;;;;;4997132;28;20469;-70
2021/06/12 04:20:11;;;;;;;;;;;;;;;;;;5015556;28;20053;-70
2021/06/12 04:22:39;;;;;;;9.70;6.85;;;;;;;;;;4997229;28;19910;-69
2021/06/12 04:25:07;;;;;;;7.33;6.17;;;;;;;;;;5014950;28;20076;-70
2021/06/12 04:27:35;;;;;;;9.35;5.97;;;;;;;;;;5014832;28;20659;-69
2021/06/12 04:30:03;;;;;;;8.63;6.38;;;;;;;;;;5014577;28;20144;-69
2021/06/12 04:32:31;;;;;;;7.50;5.18;;;;;;;;;;5014826;28;20463;-70
2021/06/12 04:34:59;;;;;;;8.38;5.43;;;;;;;;;;5014768;28;20037;-70
2021/06/12 04:37:26;;;;;;;9.27;6.25;;;;;;;;;;5014562;28;20022;-70
2021/06/12 04:39:54;;;;;;;7.47;5.43;;;;;;;;;;5014557;28;20057;-69
2021/06/12 04:42:22;;;;;;;8.40;4.90;;;;;;;;;;5013927;28;20025;-70
2021/06/12 04:44:49;;;;;;;8.27;5.25;;;;;;;;;;5014595;28;20029;-70
2021/06/12 04:47:17;;;;;;;7.68;6.28;;;;;;;;;;5014444;28;20049;-70
2021/06/12 04:49:45;;;;;;;7.78;5.20;;;;;;;;;;5014378;28;20018;-70
2021/06/12 04:52:13;;;;;;;6.18;5.07;;;;;;;;;;5014486;28;20101;-70
2021/06/12 04:54:41;;;;;;;6.55;5.00;;;;;;;;;;5014488;28;20018;-69
2021/06/12 04:57:08;;;;;;;8.32;5.00;;;;;;;;;;5014183;28;20029;-70
2021/06/12 04:59:36;;;;;;;4.75;4.25;;;;;;;;;;4996743;28;20033;-70
2021/06/12 05:02:04;;;;;;;8.05;4.80;;;;;;;;;;5013919;28;20033;-69
2021/06/12 05:04:32;;;;;;;6.95;3.88;;;;;;;;;;5037137;28;20067;-70
2021/06/12 05:06:59;;;;;;;4.25;3.60;;;;;;;;;;5038783;28;20017;-69
2021/06/12 05:09:27;;;;;;;6.53;3.72;;;;;;;;;;5036686;28;20056;-70
2021/06/12 05:11:54;;;;;;;4.18;3.42;;;;;;;;;;5013432;28;20026;-70
2021/06/12 05:14:22;;;;;;;7.60;3.80;;;;;;;;;;5014473;28;20467;-70
2021/06/12 05:16:50;;;;;;;7.18;4.05;;;;;;;;;;5013913;28;20021;-69
2021/06/12 05:19:18;;;;;;;6.05;3.40;;;;;;;;;;5013737;28;20058;-70
2021/06/12 05:21:46;;;;;;;6.15;3.90;;;;;;;;;;5013647;28;20017;-69
2021/06/12 05:24:14;;;;;;;6.72;3.33;;;;;;;;;;5013779;28;20024;-69
2021/06/12 05:26:42;;;;;;;5.43;2.93;;;;;;;;;;5013941;28;20439;-70
2021/06/12 05:29:10;;;;;;;4.13;3.30;;;;;;;;;;5013778;28;20018;-69
2021/06/12 05:31:38;;;;;;;4.30;3.28;;;;;;;;;;5013632;28;20363;-70
2021/06/12 05:34:06;;;;;;;6.28;3.85;;;;;;;;;;5013450;28;20022;-70
2021/06/12 05:36:34;;;;;;;4.68;3.05;;;;;;;;;;5013625;28;20073;-70
2021/06/12 05:39:04;;;;;;;5.27;3.07;;;;;;;;;;5013464;28;20104;-69
2021/06/12 05:41:33;;;;;;;6.70;2.85;;;;;;;;;;5013687;28;20387;-70
2021/06/12 05:44:00;;;;;;;5.13;3.10;;;;;;;;;;5012640;28;20014;-69
2021/06/12 05:46:28;;;;;;;7.97;3.45;;;;;;;;;;5013505;28;20171;-69
2021/06/12 05:48:56;;;;;;;3.72;2.70;;;;;;;;;;5013591;28;20025;-70
2021/06/12 05:51:24;;;;;;;4.30;3.13;;;;;;;;;;5013269;28;20379;-70
2021/06/12 05:53:51;;;;;;;8.00;3.40;;;;;;;;;;5013161;28;20029;-70
2021/06/12 05:56:19;;;;;;;3.92;2.63;;;;;;;;;;5013490;28;20025;-67
2021/06/12 05:58:47;;;;;;;3.58;3.13;;;;;;;;;;5013046;28;20029;-67
2021/06/12 06:01:15;;;;;;;4.30;2.60;;;;;;;;;;5013272;28;20022;-70
2021/06/12 06:03:42;;;;;;;3.30;2.60;;;;;;;;;;5013170;28;20389;-69
2021/06/12 06:06:10;;;;;;;6.53;3.05;;;;;;;;;;5013041;28;20394;-67
2021/06/12 06:08:38;;;;;;;5.67;2.97;;;;;;;;;;5013240;28;20025;-67
2021/06/12 06:11:06;;;;;;;3.95;3.17;;;;;;;;;;5013174;28;20079;-69
2021/06/12 06:13:38;;;;;;;6.10;2.80;;;;;;;;;;5012408;28;20037;-67
2021/06/12 06:16:05;;;;;;;7.18;2.85;;;;;;;;;;5012682;28;20159;-69
2021/06/12 06:18:34;;;;;;;3.55;2.90;;;;;;;;;;5012307;28;20060;-67
2021/06/12 06:21:01;;;;;;;4.93;2.57;;;;;;;;;;5012917;28;20068;-67
2021/06/12 06:23:29;;;;;;;3.75;3.08;;;;;;;;;;5012937;28;20342;-67
2021/06/12 06:25:57;;;;;;;4.10;2.45;;;;;;;;;;5012826;28;20447;-67
2021/06/12 06:28:25;;;;;;;4.27;2.33;;;;;;;;;;5013089;28;20406;-67
2021/06/12 06:30:53;;;;;;;3.25;2.30;;;;;;;;;;5012756;28;20373;-67
2021/06/12 06:33:22;;;;;;;3.92;2.58;;;;;;;;;;5012825;28;20019;-67
2021/06/12 06:35:50;;;;;;;3.80;2.50;;;;;;;;;;5012587;28;20493;-67
2021/06/12 06:38:18;;;;;;;5.80;2.50;;;;;;;;;;5012683;28;20037;-68
2021/06/12 06:40:46;;;;;;;3.30;2.75;;;;;;;;;;5012699;28;20549;-68
2021/06/12 06:43:14;;;;;;;7.57;3.10;;;;;;;;;;5012227;28;20145;-68
2021/06/12 06:45:42;;;;;;;6.15;2.92;;;;;;;;;;5012628;28;20037;-68
2021/06/12 06:48:11;;;;;;;4.70;2.70;;;;;;;;;;5012348;28;20064;-68
2021/06/12 06:50:40;;;;;;;4.53;2.70;;;;;;;;;;5012834;28;20049;-68
2021/06/12 06:53:09;;;;;;;4.60;3.30;;;;;;;;;;5012694;28;20022;-68
2021/06/12 06:55:36;;;;;;;4.68;2.55;;;;;;;;;;5012676;28;20434;-68
2021/06/12 06:58:05;;;;;;;4.63;2.77;;;;;;;;;;5012243;28;20018;-68
2021/06/12 07:00:32;;;;;;;4.80;2.72;;;;;;;;;;5012447;28;20022;-68
2021/06/12 07:03:00;;;;;;;3.10;2.72;;;;;;;;;;5012636;28;20068;-68
2021/06/12 07:05:28;;;;;;;4.17;3.20;;;;;;;;;;5012600;28;20080;-68
2021/06/12 07:07:56;;;;;;;3.67;3.23;;;;;;;;;;5012235;28;20022;-68
2021/06/12 07:10:26;;;;;;;4.85;2.85;;;;;;;;;;5012631;28;20110;-68
2021/06/12 07:13:03;;;;;;;3.00;2.70;;;;;;;;;;5011609;28;20022;-68
2021/06/12 07:15:31;;;;;;;2.80;2.40;;;;;;;;;;4994800;28;20022;-68
2021/06/12 07:17:59;;;;;;;5.53;2.72;;;;;;;;;;5011967;28;20045;-69
2021/06/12 07:20:30;;;;;;;7.88;3.45;;;;;;;;;;5012235;28;20081;-69
2021/06/12 07:22:58;;;;;;;6.45;2.92;;;;;;;;;;5012143;28;20030;-68
2021/06/12 07:25:25;;;;;;;5.37;2.60;;;;;;;;;;5012300;28;20042;-68
2021/06/12 07:27:53;;;;;;;6.20;2.40;;;;;;;;;;5012131;28;20525;-69
2021/06/12 07:30:21;;;;;;;6.20;2.70;;;;;;;;;;5013104;28;20262;-68
2021/06/12 07:32:49;;;;;;;6.77;2.63;;;;;;;;;;4998428;28;20493;-69
2021/06/12 07:35:17;;;;;;;4.85;2.50;;;;;;;;;;5015976;28;20112;-69
2021/06/12 07:37:45;;;;;;;3.20;2.30;;;;;;;;;;5015597;28;20435;-69
2021/06/12 07:40:13;;;;;;;7.00;2.70;;;;;;;;;;5015621;28;20041;-68
2021/06/12 07:42:40;;;;;;;7.70;3.70;;;;;;;;;;5015212;28;20018;-69
2021/06/12 07:45:09;;;;;;;5.47;2.67;;;;;;;;;;5015806;28;20026;-69
2021/06/12 07:47:37;;;;;;;6.57;2.65;;;;;;;;;;5015630;28;20433;-69
2021/06/12 07:50:04;;;;;;;5.17;2.50;;;;;;;;;;5015548;28;20022;-69
2021/06/12 07:52:32;;;;;;;3.73;2.10;;;;;;;;;;5015534;28;20021;-69
2021/06/12 07:55:00;;;;;;;4.53;2.78;;;;;;;;;;5015422;28;20443;-69
2021/06/12 07:57:28;;;;;;;4.68;2.42;;;;;;;;;;5015541;28;20026;-69
2021/06/12 07:59:55;;;;;;;2.77;2.37;;;;;;;;;;5015245;28;20026;-69
2021/06/12 08:02:24;;;;;;;5.93;2.28;;;;;;;;;;4998179;28;20022;-69
2021/06/12 08:04:52;;;;;;;3.13;2.22;;;;;;;;;;5015303;28;20021;-69
2021/06/12 08:07:20;;;;;;;6.83;3.07;;;;;;;;;;5015173;28;20124;-68
2021/06/12 08:09:50;;;;;;;4.75;2.08;;;;;;;;;;5015896;28;20255;-68
2021/06/12 08:12:18;;;;;;;2.50;2.08;;;;;;;;;;5014824;28;20049;-69
2021/06/12 08:14:45;;;;;;;2.70;2.00;;;;;;;;;;5015221;28;20375;-69
2021/06/12 08:17:13;;;;;;;2.25;2.05;;;;;;;;;;5014978;28;20283;-69
2021/06/12 08:19:40;;;;;;;2.72;2.03;;;;;;;;;;5014946;28;20041;-69
2021/06/12 08:22:11;;;;;;;3.70;2.50;;;;;;;;;;5014677;28;20022;-68
2021/06/12 08:24:39;;;;;;;2.40;2.20;;;;;;;;;;5014861;28;20028;-68
2021/06/12 08:27:07;;;;;;;3.00;2.00;;;;;;;;;;5014849;28;20478;-69
2021/06/12 08:29:35;;;;;;;2.90;2.03;;;;;;;;;;5015022;28;20026;-69
2021/06/12 08:32:04;;;;;;;2.80;1.90;;;;;;;;;;5014570;28;20022;-69
2021/06/12 08:34:32;;;;;;;4.65;1.92;;;;;;;;;;5014561;28;20024;-69
2021/06/12 08:37:02;;;;;;;3.00;2.07;;;;;;;;;;5014550;28;20022;-69
2021/06/12 08:39:30;;;;;;;1.75;1.60;;;;;;;;;;5014737;28;20030;-69
2021/06/12 08:41:58;;;;;;;2.83;2.28;;;;;;;;;;5013520;28;20018;-69
2021/06/12 08:44:26;;;;;;;2.47;2.00;;;;;;;;;;5014706;28;20506;-69
2021/06/12 08:46:53;;;;;;;;;;;;;;;;;;4997031;28;20053;-69
2021/06/12 08:49:21;;;;;;;2.83;1.92;;;;;;;;;;5014427;28;19905;-68
2021/06/12 08:51:51;;;;;;;2.55;2.30;;;;;;;;;;5017294;28;20474;-69
2021/06/12 08:54:20;;;;;;;4.45;2.20;;;;;;;;;;5040064;28;20064;-68
2021/06/12 08:56:49;;;;;;;2.05;1.83;;;;;;;;;;5039925;28;20013;-69
2021/06/12 08:59:17;;;;;;;3.60;1.98;;;;;;;;;;5034546;28;20065;-69
2021/06/12 09:01:46;;;;;;;3.38;2.33;;;;;;;;;;5014142;28;20018;-68
2021/06/12 09:04:33;;;;;;;9.88;2.10;;;;;;;;;;5014271;28;20021;-68
2021/06/12 09:07:19;;;;;;;5.20;2.67;;;;;;;;;;4996169;28;20052;-68
2021/06/12 09:09:48;;;;;;;3.05;2.03;;;;;;;;;;4996223;28;20025;-68
2021/06/12 09:51:13;;;;;;;2.00;1.70;;;;;;;;;;5011609;22;20508;-70
2021/06/12 09:53:54;;;;;;;6.88;2.35;;;;;;;;;;5092612;28;20107;-69
2021/06/12 09:56:24;;;;;;;3.22;2.05;;;;;;;;;;5093483;28;20503;-69
2021/06/12 09:58:53;;;;;;;3.97;1.95;;;;;;;;;;5074868;28;20028;-69
2021/06/12 10:01:24;;;;;;;4.70;1.80;;;;;;;;;;5092903;28;20480;-69
2021/06/12 10:04:09;;;;;;;2.58;1.70;;;;;;;;;;5092922;28;20473;-70
2021/06/12 10:06:37;;;;;;;3.42;2.00;;;;;;;;;;5092920;28;20020;-70
2021/06/12 10:09:05;;;;;;;5.00;1.83;;;;;;;;;;5093033;28;20099;-70
2021/06/12 10:27:03;;;;;;;4.47;1.60;;;;;;;;;;5040066;26;20052;-70
2021/06/12 10:29:32;;;;;;;2.43;1.40;;;;;;;;;;5074455;28;20054;-70
2021/06/12 10:31:59;;;;;;;1.75;1.35;;;;;;;;;;5092177;28;20256;-70
2021/06/12 10:34:28;;;;;;;3.53;1.38;;;;;;;;;;5092778;28;20032;-70
2021/06/12 10:37:00;;;;;;;2.10;1.40;;;;;;;;;;5074303;28;20556;-70
2021/06/12 10:39:29;;;;;;;1.63;1.30;;;;;;;;;;5092648;28;20035;-70
2021/06/12 10:42:14;;;;;;;2.80;1.40;;;;;;;;;;5091549;28;20020;-70
2021/06/12 10:44:43;;;;;;;1.70;1.27;;;;;;;;;;5092631;28;20024;-70
2021/06/12 10:47:11;;;;;;;2.75;1.80;;;;;;;;;;5092487;28;20476;-70
2021/06/12 10:49:39;;;;;;;1.98;1.38;;;;;;;;;;5074323;28;20484;-69
2021/06/12 10:52:08;;;;;;;2.80;1.45;;;;;;;;;;5092201;28;20008;-70
2021/06/12 10:54:37;;;;;;;1.38;1.27;;;;;;;;;;5092238;28;20020;-70
2021/06/12 10:57:16;;;;;;;3.22;1.50;;;;;;;;;;5092344;28;20028;-70
2021/06/12 10:59:49;;;;;;;2.88;1.77;;;;;;;;;;5092374;28;20468;-70
2021/06/12 11:05:29;;;;;;;3.20;1.60;;;;;;;;;;5049494;28;20028;-70
2021/06/12 11:08:16;;;;;;;4.97;1.60;;;;;;;;;;5096272;28;20020;-70
2021/06/12 11:10:43;;;;;;;2.38;1.65;;;;;;;;;;5096368;28;20020;-70
2021/06/12 11:23:56;;;;;;;2.08;1.70;;;;;;;;;;4141301;22;20049;-70
2021/06/12 11:26:24;;;;;;;2.72;1.80;;;;;;;;;;5055847;28;20116;-69
2021/06/12 11:29:23;;;;;;;2.33;2.00;;;;;;;;;;5055517;28;20048;-70
2021/06/12 11:31:51;;;;;;;2.47;1.98;;;;;;;;;;5022655;28;20031;-69
2021/06/12 11:34:20;;;;;;;1.80;1.70;;;;;;;;;;5055155;28;20545;-69
2021/06/12 11:36:50;;;;;;;2.33;2.00;;;;;;;;;;5055506;28;20028;-70
2021/06/12 11:39:18;;;;;;;1.73;1.60;;;;;;;;;;5047401;28;20129;-70
2021/06/12 11:41:46;;;;;;;2.15;1.65;;;;;;;;;;5055118;28;20017;-70
2021/06/12 11:44:14;;;;;;;1.83;1.67;;;;;;;;;;5055452;28;20017;-69
2021/06/12 11:46:44;;;;;;;1.83;1.63;;;;;;;;;;5055201;28;20481;-70
2021/06/12 11:49:13;;;;;;;3.80;1.60;;;;;;;;;;5055248;28;20025;-70
2021/06/12 11:51:44;;;;;;;3.20;1.75;;;;;;;;;;5055318;28;20021;-69
2021/06/12 11:54:13;;;;;;;1.80;1.67;;;;;;;;;;5055310;28;20033;-70
2021/06/12 11:57:00;;;;;;;5.30;1.90;;;;;;;;;;5055317;28;20095;-69
2021/06/12 11:59:30;;;;;;;3.13;1.55;;;;;;;;;;5054780;28;20021;-69
2021/06/12 12:02:01;;;;;;;5.72;2.03;;;;;;;;;;5054878;28;20056;-69
2021/06/12 12:04:36;;;;;;;2.75;1.85;;;;;;;;;;5055243;28;20489;-69
2021/06/12 12:07:06;;;;;;;2.95;2.58;;;;;;;;;;5054903;28;20385;-68
2021/06/12 12:09:41;;;;;;;3.88;2.47;;;;;;;;;;5054859;28;20461;-69
2021/06/12 13:58:13;;;;;;;5.03;3.05;;;;;;;;;;3381621;26;20054;-68
2021/06/12 14:00:38;;;;;;;5.30;3.13;;;;;;;;;;5052688;28;20029;-68
2021/06/12 14:03:05;;;;;;;3.78;3.22;;;;;;;;;;5052690;28;20084;-68
2021/06/12 14:05:30;;;;;;;3.58;3.22;;;;;;;;;;5052824;28;20024;-68
2021/06/12 14:07:56;;;;;;;5.03;4.53;;;;;;;;;;5052246;28;20017;-68
2021/06/12 14:10:21;;;;;;;4.45;3.22;;;;;;;;;;5052882;28;20032;-68
2021/06/12 14:23:07;;;;;;;3.90;3.25;;;;;;;;;;1265698;26;20166;-68
2021/06/12 14:25:34;;;;;;;5.10;3.67;;;;;;;;;;5052438;28;20103;-68
2021/06/12 14:28:00;;;;;;;5.68;4.70;;;;;;;;;;5052074;28;20063;-68
2021/06/12 14:30:26;;;;;;;11.20;6.70;;;;;;;;;;5052586;28;20021;-68
2021/06/12 14:32:52;;;;;;;14.48;5.88;;;;;;;;;;5052320;28;20412;-68
2021/06/12 14:35:17;;;;;;;6.63;4.47;;;;;;;;;;5052329;28;20017;-68
2021/06/12 14:37:43;;;;;;;4.93;4.03;;;;;;;;;;5052143;28;20037;-68
2021/06/12 14:40:09;;;;;;;6.10;4.30;;;;;;;;;;5052172;28;20027;-68
2021/06/12 14:42:35;;;;;;;5.15;3.80;;;;;;;;;;5051718;28;20190;-68
2021/06/12 14:45:01;;;;;;;3.97;3.58;;;;;;;;;;5052079;28;20017;-68
2021/06/12 14:47:27;;;;;;;4.78;4.10;;;;;;;;;;5052267;28;20032;-68
2021/06/12 14:49:54;;;;;;;4.20;3.60;;;;;;;;;;5052084;28;20013;-68
2021/06/12 14:52:21;;;;;;;3.83;3.53;;;;;;;;;;5052140;28;20017;-68
2021/06/12 14:54:47;;;;;;;6.40;3.75;;;;;;;;;;5052111;28;20021;-68
2021/06/12 14:57:13;;;;;;;5.47;4.30;;;;;;;;;;5052057;28;20013;-68
2021/06/12 14:59:40;;;;;;;4.78;4.10;;;;;;;;;;5052356;28;20110;-67
2021/06/12 15:02:06;;;;;;;4.22;3.83;;;;;;;;;;5052023;28;20029;-67
2021/06/12 15:04:32;;;;;;;4.55;4.10;;;;;;;;;;5052269;28;20048;-68
2021/06/12 15:06:58;;;;;;;6.60;4.05;;;;;;;;;;5052009;28;20049;-67
2021/06/12 15:09:25;;;;;;;6.72;4.75;;;;;;;;;;5052126;28;20067;-68
2021/06/12 15:11:52;;;;;;;5.93;4.40;;;;;;;;;;5051063;28;20042;-68
2021/06/12 15:14:18;;;;;;;5.30;4.80;;;;;;;;;;5052116;28;20009;-68
2021/06/12 15:16:44;;;;;;;5.47;4.97;;;;;;;;;;5052010;28;20028;-68
2021/06/12 15:19:10;;;;;;;4.60;4.15;;;;;;;;;;5051961;28;20481;-68
2021/06/12 15:21:37;;;;;;;8.00;5.13;;;;;;;;;;5052062;28;20170;-67
2021/06/12 15:24:03;;;;;;;5.00;4.50;;;;;;;;;;5051362;28;20049;-67
2021/06/12 15:26:29;;;;;;;5.85;4.22;;;;;;;;;;5051930;28;20033;-68
2021/06/12 15:28:55;;;;;;;5.90;4.43;;;;;;;;;;5051975;28;20499;-68
2021/06/12 15:31:22;;;;;;;6.70;4.55;;;;;;;;;;5051706;28;20104;-68
2021/06/12 15:33:47;;;;;;;5.50;4.05;;;;;;;;;;5051675;28;20013;-68
2021/06/12 15:36:14;;;;;;;7.75;4.45;;;;;;;;;;5051736;28;20021;-67
2021/06/12 15:38:40;;;;;;;5.88;4.30;;;;;;;;;;5051741;28;20623;-67
2021/06/12 15:41:06;;;;;;;4.82;4.32;;;;;;;;;;5051837;28;20021;-67
2021/06/12 15:43:32;;;;;;;8.07;4.63;;;;;;;;;;5051244;28;20009;-67
2021/06/12 15:45:59;;;;;;;4.75;4.20;;;;;;;;;;5051465;28;20028;-68
2021/06/12 15:48:25;;;;;;;8.52;4.60;;;;;;;;;;5033868;28;20023;-68
2021/06/12 15:50:51;;;;;;;5.18;4.57;;;;;;;;;;5051775;28;20024;-67
2021/06/12 15:53:17;;;;;;;4.90;4.35;;;;;;;;;;5055223;28;20021;-68
2021/06/12 15:55:44;;;;;;;5.30;4.78;;;;;;;;;;5055055;28;20019;-68
2021/06/12 15:58:11;;;;;;;6.60;4.75;;;;;;;;;;5055054;28;20123;-68
2021/06/12 16:00:38;;;;;;;6.07;4.30;;;;;;;;;;5055264;28;20019;-68
2021/06/12 16:03:04;;;;;;;5.05;4.60;;;;;;;;;;5055039;28;20017;-68
2021/06/12 16:05:30;;;;;;;9.35;4.28;;;;;;;;;;5055150;28;20390;-68
2021/06/12 16:07:56;;;;;;;4.53;4.13;;;;;;;;;;5054772;28;20009;-67
2021/06/12 16:10:23;;;;;;;4.88;4.10;;;;;;;;;;5037468;28;20039;-68
2021/06/12 16:12:49;;;;;;;5.95;4.32;;;;;;;;;;5054116;28;20017;-69
2021/06/12 16:15:16;;;;;;;6.95;4.57;;;;;;;;;;5054748;28;20082;-68
2021/06/12 16:17:41;;;;;;;7.55;4.60;;;;;;;;;;5054665;28;20563;-68
2021/06/12 16:20:08;;;;;;;5.60;4.45;;;;;;;;;;5036707;28;20072;-68
2021/06/12 16:22:33;;;;;;;4.90;4.10;;;;;;;;;;5054835;28;20017;-67
2021/06/12 16:24:58;;;;;;;6.70;4.70;;;;;;;;;;5054212;28;20053;-68
2021/06/12 16:27:24;;;;;;;6.25;4.50;;;;;;;;;;5054755;28;20035;-68
2021/06/12 16:29:49;;;;;;;5.25;4.20;;;;;;;;;;5051628;28;20034;-67
2021/06/12 16:32:15;;;;;;;8.68;4.72;;;;;;;;;;5080549;28;20031;-67
2021/06/12 16:34:40;;;;;;;10.40;4.22;;;;;;;;;;5078466;28;20001;-67
2021/06/12 16:37:06;;;;;;;8.45;4.85;;;;;;;;;;5058104;28;20393;-68
2021/06/12 16:39:31;;;;;;;8.35;4.75;;;;;;;;;;5054296;28;20017;-68
2021/06/12 16:41:57;;;;;;;5.32;4.85;;;;;;;;;;5053578;28;20385;-67
2021/06/12 16:44:22;;;;;;;7.60;5.15;;;;;;;;;;5054310;28;20016;-68
2021/06/12 16:46:47;;;;;;;5.50;4.68;;;;;;;;;;5054297;28;20017;-67
2021/06/12 16:49:13;;;;;;;5.35;4.70;;;;;;;;;;5054117;28;20110;-68
2021/06/12 16:51:38;;;;;;;6.13;5.10;;;;;;;;;;5054189;28;20017;-68
2021/06/12 16:54:13;;;;;;;6.47;5.00;;;;;;;;;;5053916;28;20020;-68
2021/06/12 16:59:23;;;;;;;7.75;6.00;;;;;;;;;;5054151;28;20036;-68
2021/06/12 17:01:49;;;;;;;4.65;4.25;;;;;;;;;;5053501;28;20017;-68
2021/06/12 17:04:34;;;;;;;6.82;4.90;;;;;;;;;;5054089;28;20464;-68
2021/06/12 17:06:59;;;;;;;6.85;5.50;;;;;;;;;;5051787;28;20112;-68
2021/06/12 17:09:26;;;;;;;7.20;5.63;;;;;;;;;;5048580;28;20044;-68
2021/06/12 17:11:52;;;;;;;6.28;5.22;;;;;;;;;;5047405;28;20404;-68
2021/06/12 17:14:20;;;;;;;5.25;4.68;;;;;;;;;;5053893;28;20020;-69
2021/06/12 17:16:46;;;;;;;6.30;4.88;;;;;;;;;;5053853;28;20111;-69
2021/06/12 17:19:12;;;;;;;6.95;5.50;;;;;;;;;;5053570;28;20033;-69
2021/06/12 17:21:37;;;;;;;7.63;5.47;;;;;;;;;;5053913;28;20028;-69
2021/06/12 17:24:04;;;;;;;8.93;5.53;;;;;;;;;;5053135;28;20053;-69
2021/06/12 17:26:30;;;;;;;10.85;5.22;;;;;;;;;;5054808;28;20028;-69
2021/06/12 17:28:59;;;;;;;8.50;5.72;;;;;;;;;;5050264;28;20079;-69
2021/06/12 17:31:25;;;;;;;7.18;5.38;;;;;;;;;;5053911;28;20025;-69
2021/06/12 17:33:51;;;;;;;5.53;4.97;;;;;;;;;;5051797;28;20032;-69
2021/06/12 17:36:16;;;;;;;8.02;5.43;;;;;;;;;;5032115;28;20093;-69
2021/06/12 17:38:42;;;;;;;10.75;5.35;;;;;;;;;;5053822;28;20106;-69
2021/06/12 17:41:11;;;;;;;10.95;6.00;;;;;;;;;;5049480;28;20060;-69
2021/06/12 17:43:37;;;;;;;13.43;5.82;;;;;;;;;;5048724;28;20091;-69
2021/06/12 17:46:03;;;;;;;6.63;4.90;;;;;;;;;;5049069;28;20033;-70
2021/06/12 17:48:30;;;;;;;11.10;5.18;;;;;;;;;;5052610;28;20028;-70
2021/06/12 17:50:57;;;;;;;7.07;5.50;;;;;;;;;;5048424;28;20090;-70
2021/06/12 17:53:23;;;;;;;9.38;6.35;;;;;;;;;;5036050;28;20262;-70
2021/06/12 17:55:48;;;;;;;8.52;5.43;;;;;;;;;;5051611;28;20024;-70
2021/06/12 17:58:14;;;;;;;6.43;5.18;;;;;;;;;;5049682;28;20037;-69
2021/06/12 18:00:41;;;;;;;12.45;6.38;;;;;;;;;;5050874;28;20033;-69
2021/06/12 18:03:06;;;;;;;9.40;6.32;;;;;;;;;;5050423;28;20486;-70